« Back
NWS Peachtree City, Ga » Text Product » AHN Terminal Aerodrome Forecast


Printer-friendly Version
Current Version              Previous Versions:   1  2  3  4  5  6  7  8  9  

Terminal Aerodrome Forecast

521
FTUS42 KFFC 271002 AAB
TAFAHN
TAF AMD
KAHN 271002Z 2710/2806 00000KT 5SM BR SCT050 BKN100
     FM271500 27008KT P6SM VCSH SCT035 BKN120 PROB30 2719/2722 5SM
      -TSRA OVC025CB
     FM272200 30006KT P6SM SCT100
     FM280300 30004KT P6SM SKC=

USA.gov is the U.S. government's official web portal to all federal, state and local government web resources and services.